sensor_id;sensor_type;location;lat;lon;timestamp;pressure;altitude;pressure_sealevel;temperature;humidity
20023;BME280;10172;42.054;24.546;2023-04-20T00:02:03;97723.59;;;9.69;100.00
20023;BME280;10172;42.054;24.546;2023-04-20T00:04:29;97735.06;;;9.69;100.00
20023;BME280;10172;42.054;24.546;2023-04-20T00:06:54;97724.91;;;9.63;100.00
20023;BME280;10172;42.054;24.546;2023-04-20T00:09:25;97722.44;;;9.73;100.00
20023;BME280;10172;42.054;24.546;2023-04-20T00:11:51;97725.88;;;9.86;100.00
20023;BME280;10172;42.054;24.546;2023-04-20T00:14:17;97748.66;;;9.77;100.00
20023;BME280;10172;42.054;24.546;2023-04-20T00:16:43;97713.38;;;9.51;100.00
20023;BME280;10172;42.054;24.546;2023-04-20T00:19:08;97695.41;;;9.55;100.00
20023;BME280;10172;42.054;24.546;2023-04-20T00:21:34;97745.56;;;10.76;100.00
20023;BME280;10172;42.054;24.546;2023-04-20T00:24:00;97740.16;;;11.11;100.00
20023;BME280;10172;42.054;24.546;2023-04-20T00:26:26;97707.69;;;10.51;100.00
20023;BME280;10172;42.054;24.546;2023-04-20T00:28:52;97728.50;;;10.57;100.00
20023;BME280;10172;42.054;24.546;2023-04-20T00:31:18;97714.06;;;11.05;100.00
20023;BME280;10172;42.054;24.546;2023-04-20T00:33:43;97713.88;;;10.73;100.00
20023;BME280;10172;42.054;24.546;2023-04-20T00:36:09;97729.38;;;10.79;100.00
20023;BME280;10172;42.054;24.546;2023-04-20T00:38:35;97723.84;;;11.05;100.00
20023;BME280;10172;42.054;24.546;2023-04-20T00:41:00;97718.50;;;10.82;100.00
20023;BME280;10172;42.054;24.546;2023-04-20T00:43:26;97737.94;;;10.72;100.00
20023;BME280;10172;42.054;24.546;2023-04-20T00:45:52;97719.84;;;10.99;100.00
20023;BME280;10172;42.054;24.546;2023-04-20T00:48:18;97748.06;;;11.35;100.00
20023;BME280;10172;42.054;24.546;2023-04-20T00:50:44;97746.81;;;11.17;100.00
20023;BME280;10172;42.054;24.546;2023-04-20T00:53:10;97748.66;;;11.38;100.00
20023;BME280;10172;42.054;24.546;2023-04-20T00:55:37;97710.50;;;10.71;100.00
20023;BME280;10172;42.054;24.546;2023-04-20T00:58:03;97720.94;;;10.97;100.00
20023;BME280;10172;42.054;24.546;2023-04-20T01:00:29;97698.19;;;11.26;100.00
20023;BME280;10172;42.054;24.546;2023-04-20T01:02:55;97692.16;;;11.24;100.00
20023;BME280;10172;42.054;24.546;2023-04-20T01:05:21;97733.59;;;11.93;100.00
20023;BME280;10172;42.054;24.546;2023-04-20T01:07:47;97710.16;;;11.54;100.00
20023;BME280;10172;42.054;24.546;2023-04-20T01:10:12;97736.34;;;12.03;100.00
20023;BME280;10172;42.054;24.546;2023-04-20T01:12:38;97701.47;;;11.29;100.00
20023;BME280;10172;42.054;24.546;2023-04-20T01:15:04;97726.53;;;11.38;100.00
20023;BME280;10172;42.054;24.546;2023-04-20T01:17:31;97720.56;;;10.90;100.00
20023;BME280;10172;42.054;24.546;2023-04-20T01:19:58;97719.31;;;10.61;100.00
20023;BME280;10172;42.054;24.546;2023-04-20T01:22:24;97748.06;;;11.13;100.00
20023;BME280;10172;42.054;24.546;2023-04-20T01:24:50;97694.91;;;11.45;100.00
20023;BME280;10172;42.054;24.546;2023-04-20T01:27:16;97703.03;;;11.43;100.00
20023;BME280;10172;42.054;24.546;2023-04-20T01:29:42;97725.28;;;10.87;100.00
20023;BME280;10172;42.054;24.546;2023-04-20T01:32:08;97740.31;;;11.21;100.00
20023;BME280;10172;42.054;24.546;2023-04-20T01:34:34;97719.22;;;10.85;100.00
20023;BME280;10172;42.054;24.546;2023-04-20T01:37:00;97716.47;;;10.97;100.00
20023;BME280;10172;42.054;24.546;2023-04-20T01:39:26;97717.91;;;11.01;100.00
20023;BME280;10172;42.054;24.546;2023-04-20T01:41:52;97679.94;;;10.31;100.00
20023;BME280;10172;42.054;24.546;2023-04-20T01:44:18;97685.34;;;10.18;100.00
20023;BME280;10172;42.054;24.546;2023-04-20T01:46:43;97702.16;;;10.19;100.00
20023;BME280;10172;42.054;24.546;2023-04-20T01:49:09;97719.88;;;9.95;100.00
20023;BME280;10172;42.054;24.546;2023-04-20T01:51:34;97714.63;;;10.30;100.00
20023;BME280;10172;42.054;24.546;2023-04-20T01:54:01;97731.03;;;10.58;100.00
20023;BME280;10172;42.054;24.546;2023-04-20T01:56:27;97677.28;;;10.31;100.00
20023;BME280;10172;42.054;24.546;2023-04-20T01:58:52;97729.94;;;10.61;100.00
20023;BME280;10172;42.054;24.546;2023-04-20T02:01:18;97693.09;;;10.90;100.00
20023;BME280;10172;42.054;24.546;2023-04-20T02:03:43;97717.63;;;10.25;100.00
20023;BME280;10172;42.054;24.546;2023-04-20T02:06:09;97682.13;;;10.02;100.00
20023;BME280;10172;42.054;24.546;2023-04-20T02:08:35;97719.19;;;10.51;100.00
20023;BME280;10172;42.054;24.546;2023-04-20T02:11:00;97695.22;;;10.62;100.00
20023;BME280;10172;42.054;24.546;2023-04-20T02:13:26;97696.25;;;10.84;100.00
20023;BME280;10172;42.054;24.546;2023-04-20T02:15:52;97673.97;;;10.62;100.00
20023;BME280;10172;42.054;24.546;2023-04-20T02:18:17;97705.88;;;10.62;100.00
20023;BME280;10172;42.054;24.546;2023-04-20T02:20:44;97664.97;;;10.41;100.00
20023;BME280;10172;42.054;24.546;2023-04-20T02:23:10;97717.91;;;11.23;100.00
20023;BME280;10172;42.054;24.546;2023-04-20T02:25:36;97719.47;;;11.59;100.00
20023;BME280;10172;42.054;24.546;2023-04-20T02:28:02;97689.66;;;10.43;100.00
20023;BME280;10172;42.054;24.546;2023-04-20T02:30:27;97671.72;;;9.99;100.00
20023;BME280;10172;42.054;24.546;2023-04-20T02:32:53;97672.16;;;10.17;100.00
20023;BME280;10172;42.054;24.546;2023-04-20T02:35:18;97685.66;;;10.38;100.00
20023;BME280;10172;42.054;24.546;2023-04-20T02:37:44;97723.88;;;10.13;100.00
20023;BME280;10172;42.054;24.546;2023-04-20T02:40:10;97683.28;;;10.22;100.00
20023;BME280;10172;42.054;24.546;2023-04-20T02:42:36;97695.47;;;10.48;100.00
20023;BME280;10172;42.054;24.546;2023-04-20T02:45:02;97679.16;;;10.53;100.00
20023;BME280;10172;42.054;24.546;2023-04-20T02:47:27;97706.41;;;10.22;100.00
20023;BME280;10172;42.054;24.546;2023-04-20T02:49:53;97697.84;;;9.82;100.00
20023;BME280;10172;42.054;24.546;2023-04-20T02:52:18;97702.75;;;9.99;100.00
20023;BME280;10172;42.054;24.546;2023-04-20T02:54:44;97718.13;;;10.76;100.00
20023;BME280;10172;42.054;24.546;2023-04-20T02:57:09;97698.59;;;10.42;100.00
20023;BME280;10172;42.054;24.546;2023-04-20T02:59:36;97680.44;;;9.78;100.00
20023;BME280;10172;42.054;24.546;2023-04-20T03:02:02;97682.91;;;9.68;100.00
20023;BME280;10172;42.054;24.546;2023-04-20T03:04:27;97717.91;;;10.33;100.00
20023;BME280;10172;42.054;24.546;2023-04-20T03:06:55;97747.84;;;10.24;100.00
20023;BME280;10172;42.054;24.546;2023-04-20T03:09:21;97722.34;;;10.09;100.00
20023;BME280;10172;42.054;24.546;2023-04-20T03:11:48;97744.47;;;9.86;100.00
20023;BME280;10172;42.054;24.546;2023-04-20T03:14:14;97750.72;;;9.97;100.00
20023;BME280;10172;42.054;24.546;2023-04-20T03:16:40;97705.13;;;9.91;100.00
20023;BME280;10172;42.054;24.546;2023-04-20T03:19:06;97725.88;;;9.86;100.00
20023;BME280;10172;42.054;24.546;2023-04-20T03:21:32;97751.44;;;10.23;100.00
20023;BME280;10172;42.054;24.546;2023-04-20T03:23:58;97694.84;;;9.86;100.00
20023;BME280;10172;42.054;24.546;2023-04-20T03:26:24;97719.69;;;9.25;100.00
20023;BME280;10172;42.054;24.546;2023-04-20T03:28:50;97701.16;;;9.49;100.00
20023;BME280;10172;42.054;24.546;2023-04-20T03:31:15;97731.41;;;9.83;100.00
20023;BME280;10172;42.054;24.546;2023-04-20T03:33:41;97750.31;;;9.91;100.00
20023;BME280;10172;42.054;24.546;2023-04-20T03:36:06;97741.59;;;9.03;100.00
20023;BME280;10172;42.054;24.546;2023-04-20T03:38:33;97726.19;;;9.57;100.00
20023;BME280;10172;42.054;24.546;2023-04-20T03:40:59;97731.84;;;9.77;100.00
20023;BME280;10172;42.054;24.546;2023-04-20T03:43:25;97736.94;;;9.56;100.00
20023;BME280;10172;42.054;24.546;2023-04-20T03:45:50;97741.09;;;9.47;100.00
20023;BME280;10172;42.054;24.546;2023-04-20T03:48:16;97745.66;;;9.82;100.00
20023;BME280;10172;42.054;24.546;2023-04-20T03:50:41;97718.06;;;9.72;100.00
20023;BME280;10172;42.054;24.546;2023-04-20T03:53:06;97733.84;;;8.88;100.00
20023;BME280;10172;42.054;24.546;2023-04-20T03:55:32;97725.69;;;9.52;100.00
20023;BME280;10172;42.054;24.546;2023-04-20T03:57:57;97712.19;;;9.55;100.00
20023;BME280;10172;42.054;24.546;2023-04-20T04:00:23;97724.16;;;10.21;100.00
20023;BME280;10172;42.054;24.546;2023-04-20T04:02:48;97705.34;;;10.11;100.00
20023;BME280;10172;42.054;24.546;2023-04-20T04:05:14;97727.13;;;9.93;100.00
20023;BME280;10172;42.054;24.546;2023-04-20T04:07:39;97724.38;;;9.58;100.00
20023;BME280;10172;42.054;24.546;2023-04-20T04:10:05;97719.09;;;9.82;100.00
20023;BME280;10172;42.054;24.546;2023-04-20T04:12:31;97714.94;;;9.18;100.00
20023;BME280;10172;42.054;24.546;2023-04-20T04:14:57;97743.63;;;9.49;100.00
20023;BME280;10172;42.054;24.546;2023-04-20T04:17:22;97703.06;;;9.59;100.00
20023;BME280;10172;42.054;24.546;2023-04-20T04:19:48;97705.22;;;9.42;100.00
20023;BME280;10172;42.054;24.546;2023-04-20T04:22:13;97723.81;;;9.66;100.00
20023;BME280;10172;42.054;24.546;2023-04-20T04:24:39;97729.09;;;10.02;100.00
20023;BME280;10172;42.054;24.546;2023-04-20T04:27:06;97749.38;;;9.79;100.00
20023;BME280;10172;42.054;24.546;2023-04-20T04:29:32;97711.94;;;9.22;100.00
20023;BME280;10172;42.054;24.546;2023-04-20T04:32:01;97704.88;;;9.46;100.00
20023;BME280;10172;42.054;24.546;2023-04-20T04:34:27;97717.50;;;9.55;100.00
20023;BME280;10172;42.054;24.546;2023-04-20T04:36:54;97687.50;;;9.42;100.00
20023;BME280;10172;42.054;24.546;2023-04-20T04:39:19;97698.63;;;9.47;100.00
20023;BME280;10172;42.054;24.546;2023-04-20T04:41:45;97734.22;;;9.69;100.00
20023;BME280;10172;42.054;24.546;2023-04-20T04:44:11;97707.53;;;9.46;100.00
20023;BME280;10172;42.054;24.546;2023-04-20T04:46:36;97725.38;;;10.28;100.00
20023;BME280;10172;42.054;24.546;2023-04-20T04:49:02;97737.88;;;10.15;100.00
20023;BME280;10172;42.054;24.546;2023-04-20T04:51:28;97749.69;;;10.69;100.00
20023;BME280;10172;42.054;24.546;2023-04-20T04:53:55;97728.03;;;10.28;100.00
20023;BME280;10172;42.054;24.546;2023-04-20T04:56:21;97727.84;;;10.42;100.00
20023;BME280;10172;42.054;24.546;2023-04-20T04:58:47;97675.69;;;10.17;100.00
20023;BME280;10172;42.054;24.546;2023-04-20T05:01:14;97730.00;;;10.83;100.00
20023;BME280;10172;42.054;24.546;2023-04-20T05:03:39;97722.53;;;11.10;100.00
20023;BME280;10172;42.054;24.546;2023-04-20T05:06:05;97722.63;;;11.31;100.00
20023;BME280;10172;42.054;24.546;2023-04-20T05:08:32;97767.75;;;11.66;100.00
20023;BME280;10172;42.054;24.546;2023-04-20T05:10:58;97734.47;;;11.60;100.00
20023;BME280;10172;42.054;24.546;2023-04-20T05:13:23;97703.41;;;11.92;100.00
20023;BME280;10172;42.054;24.546;2023-04-20T05:15:49;97724.53;;;12.48;100.00
20023;BME280;10172;42.054;24.546;2023-04-20T05:18:14;97756.69;;;12.67;100.00
20023;BME280;10172;42.054;24.546;2023-04-20T05:20:41;97756.63;;;12.99;100.00
20023;BME280;10172;42.054;24.546;2023-04-20T05:23:06;97744.66;;;12.73;100.00
20023;BME280;10172;42.054;24.546;2023-04-20T05:25:32;97734.59;;;12.24;100.00
20023;BME280;10172;42.054;24.546;2023-04-20T05:27:58;97772.91;;;12.75;100.00
20023;BME280;10172;42.054;24.546;2023-04-20T05:30:23;97727.66;;;12.94;100.00
20023;BME280;10172;42.054;24.546;2023-04-20T05:32:49;97791.19;;;13.00;100.00
20023;BME280;10172;42.054;24.546;2023-04-20T05:35:15;97786.69;;;13.01;100.00
20023;BME280;10172;42.054;24.546;2023-04-20T05:37:41;97759.88;;;13.02;100.00
20023;BME280;10172;42.054;24.546;2023-04-20T05:40:07;97782.31;;;13.41;100.00
20023;BME280;10172;42.054;24.546;2023-04-20T05:42:33;97764.28;;;13.64;100.00
20023;BME280;10172;42.054;24.546;2023-04-20T05:44:59;97786.78;;;13.61;100.00
20023;BME280;10172;42.054;24.546;2023-04-20T05:47:25;97758.13;;;12.92;100.00
20023;BME280;10172;42.054;24.546;2023-04-20T05:49:52;97751.56;;;12.75;100.00
20023;BME280;10172;42.054;24.546;2023-04-20T05:52:18;97729.72;;;12.29;100.00
20023;BME280;10172;42.054;24.546;2023-04-20T05:54:43;97735.16;;;11.84;100.00
20023;BME280;10172;42.054;24.546;2023-04-20T05:57:09;97786.47;;;12.09;100.00
20023;BME280;10172;42.054;24.546;2023-04-20T05:59:35;97790.81;;;12.21;100.00
20023;BME280;10172;42.054;24.546;2023-04-20T06:02:01;97759.34;;;12.04;100.00
20023;BME280;10172;42.054;24.546;2023-04-20T06:04:26;97749.59;;;11.60;100.00
20023;BME280;10172;42.054;24.546;2023-04-20T06:06:52;97766.38;;;12.16;100.00
20023;BME280;10172;42.054;24.546;2023-04-20T06:09:17;97783.22;;;12.69;100.00
20023;BME280;10172;42.054;24.546;2023-04-20T06:11:43;97750.44;;;11.93;100.00
20023;BME280;10172;42.054;24.546;2023-04-20T06:14:08;97699.06;;;12.44;100.00
20023;BME280;10172;42.054;24.546;2023-04-20T06:16:36;97759.53;;;13.16;100.00
20023;BME280;10172;42.054;24.546;2023-04-20T06:19:02;97758.19;;;13.92;100.00
20023;BME280;10172;42.054;24.546;2023-04-20T06:21:28;97780.16;;;14.05;100.00
20023;BME280;10172;42.054;24.546;2023-04-20T06:23:53;97765.41;;;14.11;100.00
20023;BME280;10172;42.054;24.546;2023-04-20T06:26:19;97785.44;;;14.35;100.00
20023;BME280;10172;42.054;24.546;2023-04-20T06:28:44;97782.63;;;13.88;100.00
20023;BME280;10172;42.054;24.546;2023-04-20T06:31:11;97808.91;;;14.22;100.00
20023;BME280;10172;42.054;24.546;2023-04-20T06:33:36;97788.03;;;14.07;100.00
20023;BME280;10172;42.054;24.546;2023-04-20T06:36:05;97775.03;;;13.83;100.00
20023;BME280;10172;42.054;24.546;2023-04-20T06:38:31;97795.03;;;14.48;100.00
20023;BME280;10172;42.054;24.546;2023-04-20T06:40:57;97814.56;;;13.79;100.00
20023;BME280;10172;42.054;24.546;2023-04-20T06:43:26;97815.41;;;13.50;100.00
20023;BME280;10172;42.054;24.546;2023-04-20T06:45:52;97785.22;;;13.29;100.00
20023;BME280;10172;42.054;24.546;2023-04-20T06:48:18;97758.06;;;13.54;100.00
20023;BME280;10172;42.054;24.546;2023-04-20T06:50:47;97813.75;;;13.58;100.00
20023;BME280;10172;42.054;24.546;2023-04-20T06:53:13;97784.34;;;13.49;100.00
20023;BME280;10172;42.054;24.546;2023-04-20T06:55:39;97774.53;;;14.08;97.45
20023;BME280;10172;42.054;24.546;2023-04-20T06:58:04;97781.88;;;14.25;100.00
20023;BME280;10172;42.054;24.546;2023-04-20T07:00:30;97801.00;;;13.62;100.00
20023;BME280;10172;42.054;24.546;2023-04-20T07:02:55;97784.69;;;13.35;98.88
20023;BME280;10172;42.054;24.546;2023-04-20T07:05:21;97813.78;;;13.68;99.68
20023;BME280;10172;42.054;24.546;2023-04-20T07:07:47;97812.28;;;13.45;99.77
20023;BME280;10172;42.054;24.546;2023-04-20T07:10:13;97785.41;;;13.37;97.99
20023;BME280;10172;42.054;24.546;2023-04-20T07:12:39;97788.66;;;13.19;100.00
20023;BME280;10172;42.054;24.546;2023-04-20T07:15:06;97800.00;;;13.33;100.00
20023;BME280;10172;42.054;24.546;2023-04-20T07:17:32;97813.44;;;13.22;100.00
20023;BME280;10172;42.054;24.546;2023-04-20T07:19:58;97816.28;;;13.60;98.92
20023;BME280;10172;42.054;24.546;2023-04-20T07:22:31;97769.63;;;13.34;99.52
20023;BME280;10172;42.054;24.546;2023-04-20T07:24:59;97778.44;;;13.55;99.04
20023;BME280;10172;42.054;24.546;2023-04-20T07:27:25;97778.50;;;13.74;95.76
20023;BME280;10172;42.054;24.546;2023-04-20T07:29:52;97807.81;;;13.75;96.57
20023;BME280;10172;42.054;24.546;2023-04-20T07:32:17;97770.44;;;13.95;94.98
20023;BME280;10172;42.054;24.546;2023-04-20T07:34:42;97778.47;;;14.04;94.31
20023;BME280;10172;42.054;24.546;2023-04-20T07:37:08;97788.84;;;13.98;91.81
20023;BME280;10172;42.054;24.546;2023-04-20T07:39:33;97798.00;;;14.35;93.77
20023;BME280;10172;42.054;24.546;2023-04-20T07:42:01;97783.53;;;14.17;93.06
20023;BME280;10172;42.054;24.546;2023-04-20T07:44:27;97772.25;;;13.94;90.46
20023;BME280;10172;42.054;24.546;2023-04-20T07:46:52;97801.88;;;14.31;87.13
20023;BME280;10172;42.054;24.546;2023-04-20T07:49:19;97799.06;;;15.28;86.07
20023;BME280;10172;42.054;24.546;2023-04-20T07:51:44;97770.78;;;14.87;85.37
20023;BME280;10172;42.054;24.546;2023-04-20T07:54:09;97767.00;;;14.52;83.96
20023;BME280;10172;42.054;24.546;2023-04-20T07:56:35;97794.31;;;14.93;86.38
20023;BME280;10172;42.054;24.546;2023-04-20T07:59:00;97799.63;;;15.22;82.72
20023;BME280;10172;42.054;24.546;2023-04-20T08:01:26;97794.09;;;15.33;83.76
20023;BME280;10172;42.054;24.546;2023-04-20T08:03:51;97793.94;;;14.60;85.57
20023;BME280;10172;42.054;24.546;2023-04-20T08:06:19;97801.66;;;14.63;86.08
20023;BME280;10172;42.054;24.546;2023-04-20T08:08:44;97795.16;;;14.36;87.23
20023;BME280;10172;42.054;24.546;2023-04-20T08:11:10;97798.00;;;14.64;83.95
20023;BME280;10172;42.054;24.546;2023-04-20T08:13:36;97804.75;;;14.87;87.75
20023;BME280;10172;42.054;24.546;2023-04-20T08:16:02;97769.81;;;14.88;87.64
20023;BME280;10172;42.054;24.546;2023-04-20T08:18:27;97779.44;;;15.28;84.85
20023;BME280;10172;42.054;24.546;2023-04-20T08:20:54;97757.66;;;15.04;86.72
20023;BME280;10172;42.054;24.546;2023-04-20T08:23:20;97782.38;;;15.53;86.52
20023;BME280;10172;42.054;24.546;2023-04-20T08:25:54;97770.19;;;15.69;86.77
20023;BME280;10172;42.054;24.546;2023-04-20T08:28:21;97787.47;;;15.47;84.52
20023;BME280;10172;42.054;24.546;2023-04-20T08:30:46;97731.28;;;15.55;84.40
20023;BME280;10172;42.054;24.546;2023-04-20T08:33:12;97792.69;;;15.48;86.07
20023;BME280;10172;42.054;24.546;2023-04-20T08:35:37;97746.97;;;14.94;83.33
20023;BME280;10172;42.054;24.546;2023-04-20T08:38:03;97770.47;;;15.19;81.63
20023;BME280;10172;42.054;24.546;2023-04-20T08:40:30;97756.88;;;14.84;81.36
20023;BME280;10172;42.054;24.546;2023-04-20T08:42:56;97766.25;;;15.07;82.47
20023;BME280;10172;42.054;24.546;2023-04-20T08:45:24;97775.31;;;15.62;84.58
20023;BME280;10172;42.054;24.546;2023-04-20T08:47:51;97797.06;;;15.49;85.06
20023;BME280;10172;42.054;24.546;2023-04-20T08:50:18;97787.16;;;16.14;83.72
20023;BME280;10172;42.054;24.546;2023-04-20T08:52:43;97751.38;;;15.78;82.33
20023;BME280;10172;42.054;24.546;2023-04-20T08:55:09;97771.88;;;16.24;84.43
20023;BME280;10172;42.054;24.546;2023-04-20T08:57:34;97768.91;;;16.00;76.93
20023;BME280;10172;42.054;24.546;2023-04-20T09:00:03;97791.41;;;15.52;81.44
20023;BME280;10172;42.054;24.546;2023-04-20T09:02:29;97764.97;;;15.11;84.36
20023;BME280;10172;42.054;24.546;2023-04-20T09:05:03;97802.81;;;15.64;83.95
20023;BME280;10172;42.054;24.546;2023-04-20T09:07:29;97797.56;;;15.63;83.81
20023;BME280;10172;42.054;24.546;2023-04-20T09:09:59;97773.66;;;15.51;84.99
20023;BME280;10172;42.054;24.546;2023-04-20T09:12:26;97760.69;;;15.37;84.57
20023;BME280;10172;42.054;24.546;2023-04-20T09:14:52;97776.66;;;15.29;87.68
20023;BME280;10172;42.054;24.546;2023-04-20T09:17:30;97801.28;;;15.42;83.72
20023;BME280;10172;42.054;24.546;2023-04-20T09:19:56;97766.16;;;14.89;81.42
20023;BME280;10172;42.054;24.546;2023-04-20T09:22:33;97789.41;;;15.54;82.91
20023;BME280;10172;42.054;24.546;2023-04-20T09:24:59;97774.56;;;15.70;84.29
20023;BME280;10172;42.054;24.546;2023-04-20T09:27:26;97786.59;;;15.56;84.43
20023;BME280;10172;42.054;24.546;2023-04-20T09:29:58;97746.53;;;15.54;82.32
20023;BME280;10172;42.054;24.546;2023-04-20T09:32:26;97739.44;;;15.90;82.80
20023;BME280;10172;42.054;24.546;2023-04-20T09:34:53;97724.56;;;15.51;80.70
20023;BME280;10172;42.054;24.546;2023-04-20T09:37:19;97754.38;;;15.66;83.61
20023;BME280;10172;42.054;24.546;2023-04-20T09:39:45;97756.63;;;15.70;83.55
20023;BME280;10172;42.054;24.546;2023-04-20T09:42:12;97756.19;;;16.02;84.31
20023;BME280;10172;42.054;24.546;2023-04-20T09:44:38;97751.22;;;15.80;81.47
20023;BME280;10172;42.054;24.546;2023-04-20T09:47:05;97752.06;;;16.25;80.25
20023;BME280;10172;42.054;24.546;2023-04-20T09:49:32;97766.69;;;16.76;78.91
20023;BME280;10172;42.054;24.546;2023-04-20T09:52:01;97773.00;;;16.39;76.82
20023;BME280;10172;42.054;24.546;2023-04-20T09:54:27;97763.22;;;16.65;80.41
20023;BME280;10172;42.054;24.546;2023-04-20T09:56:53;97725.69;;;16.73;80.73
20023;BME280;10172;42.054;24.546;2023-04-20T09:59:20;97729.84;;;17.37;80.34
20023;BME280;10172;42.054;24.546;2023-04-20T10:01:45;97746.63;;;17.31;77.74
20023;BME280;10172;42.054;24.546;2023-04-20T10:04:11;97705.31;;;17.32;74.87
20023;BME280;10172;42.054;24.546;2023-04-20T10:06:39;97706.16;;;17.07;76.38
20023;BME280;10172;42.054;24.546;2023-04-20T10:09:07;97752.91;;;16.70;76.02
20023;BME280;10172;42.054;24.546;2023-04-20T10:11:33;97750.41;;;16.24;79.42
20023;BME280;10172;42.054;24.546;2023-04-20T10:14:12;97725.34;;;16.06;79.67
20023;BME280;10172;42.054;24.546;2023-04-20T10:16:38;97730.25;;;16.38;81.83
20023;BME280;10172;42.054;24.546;2023-04-20T10:19:04;97700.19;;;16.17;84.29
20023;BME280;10172;42.054;24.546;2023-04-20T10:21:30;97750.22;;;16.08;83.18
20023;BME280;10172;42.054;24.546;2023-04-20T10:23:59;97713.44;;;15.46;84.45
20023;BME280;10172;42.054;24.546;2023-04-20T10:26:42;97721.69;;;15.62;82.41
20023;BME280;10172;42.054;24.546;2023-04-20T10:29:09;97749.88;;;15.66;82.33
20023;BME280;10172;42.054;24.546;2023-04-20T10:31:36;97714.84;;;15.40;82.89
20023;BME280;10172;42.054;24.546;2023-04-20T10:34:03;97722.41;;;15.82;84.44
20023;BME280;10172;42.054;24.546;2023-04-20T10:36:31;97720.53;;;16.09;81.61
20023;BME280;10172;42.054;24.546;2023-04-20T10:38:59;97678.28;;;15.39;79.10
20023;BME280;10172;42.054;24.546;2023-04-20T10:41:29;97717.03;;;15.82;82.86
20023;BME280;10172;42.054;24.546;2023-04-20T10:44:05;97747.50;;;16.35;80.55
20023;BME280;10172;42.054;24.546;2023-04-20T10:46:31;97730.81;;;16.14;79.14
20023;BME280;10172;42.054;24.546;2023-04-20T10:48:59;97710.41;;;15.59;81.61
20023;BME280;10172;42.054;24.546;2023-04-20T10:51:28;97741.81;;;15.93;80.96
20023;BME280;10172;42.054;24.546;2023-04-20T10:54:00;97740.84;;;16.57;80.99
20023;BME280;10172;42.054;24.546;2023-04-20T10:56:26;97700.47;;;16.49;81.07
20023;BME280;10172;42.054;24.546;2023-04-20T10:58:52;97720.66;;;16.35;82.17
20023;BME280;10172;42.054;24.546;2023-04-20T11:01:18;97685.41;;;16.38;79.79
20023;BME280;10172;42.054;24.546;2023-04-20T11:03:48;97730.91;;;17.18;78.08
20023;BME280;10172;42.054;24.546;2023-04-20T11:06:16;97692.84;;;16.80;76.62
20023;BME280;10172;42.054;24.546;2023-04-20T11:08:42;97697.25;;;16.81;75.93
20023;BME280;10172;42.054;24.546;2023-04-20T11:11:22;97701.00;;;17.47;77.35
20023;BME280;10172;42.054;24.546;2023-04-20T11:14:10;97701.41;;;18.02;75.44
20023;BME280;10172;42.054;24.546;2023-04-20T11:16:36;97708.09;;;17.22;74.47
20023;BME280;10172;42.054;24.546;2023-04-20T11:19:02;97702.81;;;17.64;73.95
20023;BME280;10172;42.054;24.546;2023-04-20T11:21:40;97709.44;;;17.86;73.16
20023;BME280;10172;42.054;24.546;2023-04-20T11:24:36;97708.88;;;18.24;71.68
20023;BME280;10172;42.054;24.546;2023-04-20T11:27:02;97709.66;;;18.09;73.15
20023;BME280;10172;42.054;24.546;2023-04-20T11:29:36;97695.38;;;18.08;71.95
20023;BME280;10172;42.054;24.546;2023-04-20T11:32:08;97710.59;;;17.75;73.84
20023;BME280;10172;42.054;24.546;2023-04-20T11:34:35;97697.41;;;17.05;75.53
20023;BME280;10172;42.054;24.546;2023-04-20T11:37:09;97705.50;;;17.64;76.45
20023;BME280;10172;42.054;24.546;2023-04-20T11:39:37;97682.28;;;17.63;69.98
20023;BME280;10172;42.054;24.546;2023-04-20T11:42:03;97690.91;;;17.49;71.91
20023;BME280;10172;42.054;24.546;2023-04-20T11:44:29;97659.78;;;17.05;71.19
20023;BME280;10172;42.054;24.546;2023-04-20T11:46:55;97698.75;;;18.18;70.33
20023;BME280;10172;42.054;24.546;2023-04-20T11:49:27;97651.59;;;17.90;67.00
20023;BME280;10172;42.054;24.546;2023-04-20T11:51:53;97686.00;;;18.36;70.17
20023;BME280;10172;42.054;24.546;2023-04-20T11:54:19;97631.88;;;17.73;70.98
20023;BME280;10172;42.054;24.546;2023-04-20T11:56:46;97650.06;;;17.38;69.38
20023;BME280;10172;42.054;24.546;2023-04-20T11:59:12;97620.41;;;17.55;71.19
20023;BME280;10172;42.054;24.546;2023-04-20T12:01:44;97659.78;;;17.39;73.05
20023;BME280;10172;42.054;24.546;2023-04-20T12:04:10;97662.53;;;17.13;70.95
20023;BME280;10172;42.054;24.546;2023-04-20T12:06:35;97658.56;;;16.73;74.84
20023;BME280;10172;42.054;24.546;2023-04-20T12:09:01;97628.19;;;16.99;73.67
20023;BME280;10172;42.054;24.546;2023-04-20T12:11:26;97623.78;;;17.23;73.30
20023;BME280;10172;42.054;24.546;2023-04-20T12:13:52;97650.94;;;17.46;73.75
20023;BME280;10172;42.054;24.546;2023-04-20T12:16:19;97662.13;;;17.67;72.16
20023;BME280;10172;42.054;24.546;2023-04-20T12:18:44;97619.53;;;17.13;72.38
20023;BME280;10172;42.054;24.546;2023-04-20T12:21:10;97643.34;;;17.75;68.17
20023;BME280;10172;42.054;24.546;2023-04-20T12:23:35;97636.69;;;18.36;67.91
20023;BME280;10172;42.054;24.546;2023-04-20T12:26:02;97612.28;;;18.05;66.14
20023;BME280;10172;42.054;24.546;2023-04-20T12:28:28;97618.47;;;17.81;69.39
20023;BME280;10172;42.054;24.546;2023-04-20T12:30:54;97607.78;;;18.54;70.55
20023;BME280;10172;42.054;24.546;2023-04-20T12:33:19;97619.84;;;18.10;65.97
20023;BME280;10172;42.054;24.546;2023-04-20T12:35:45;97609.09;;;18.66;66.92
20023;BME280;10172;42.054;24.546;2023-04-20T12:38:10;97596.28;;;18.28;65.01
20023;BME280;10172;42.054;24.546;2023-04-20T12:40:36;97573.75;;;18.29;65.74
20023;BME280;10172;42.054;24.546;2023-04-20T12:43:01;97592.41;;;18.38;66.73